Аэропорт: Владикавказ (Беслан). Владикавказ

ICAO: URMO

METAR:
2022-06-26 11:00:00
URMO 261100Z VRB01MPS 9999 -RA SCT009 OVC033 20/17 Q1009 R09/290150 TEMPO 1000 SHRA BKN002 BKN020CB RMK QFE713/0951
METAR:
2022-06-26 08:00:00
TAF URMO 260800Z 2609/2618 28003G08MPS 9999 BKN030 TEMPO 2609/2618 VRB05G12MPS 6000 -TSRA BKN010 BKN020CB